SWA32T KOKC-KTPA
Flight info
| Callsign | SWA32T |
|---|---|
| Flight time | 2h 9m |
| Altitude | 37000 |
| Route | KRMSN4 WICKS DCT PLATE J20 DECOD DCT CHNLT DCT DEFUN MAATY5 |
| Aircraft | B738/M-SDE2E3FGHIRWXY/LB1 |
Departure
| Time | 2026-04-20 15:55 |
|---|---|
| Airport | OKC Will Rogers World Airport (KOKC) |
Arrival
| Time | 2026-04-20 18:04 |
|---|---|
| Airport | Tampa International Airport (KTPA) |
| Time | Latitude | Longitude | Altitude | Speed | Heading |
|---|---|---|---|---|---|
| 2026-04-20 15:32 | 35.39456 | -97.59616 | 1296 ft | 0 kts | 353° |
| 2026-04-20 15:45 | 35.39442 | -97.59614 | 1296 ft | 4 kts | 356° |
| 2026-04-20 15:45 | 35.39415 | -97.59614 | 1296 ft | 4 kts | 10° |
| 2026-04-20 15:46 | 35.39391 | -97.59625 | 1296 ft | 4 kts | 45° |
| 2026-04-20 15:46 | 35.39383 | -97.59641 | 1296 ft | 0 kts | 90° |
| 2026-04-20 15:48 | 35.39383 | -97.59630 | 1296 ft | 3 kts | 90° |
| 2026-04-20 15:48 | 35.39383 | -97.59592 | 1296 ft | 6 kts | 90° |
| 2026-04-20 15:49 | 35.39383 | -97.59541 | 1297 ft | 6 kts | 90° |
| 2026-04-20 15:49 | 35.39383 | -97.59489 | 1297 ft | 6 kts | 90° |
| 2026-04-20 15:49 | 35.39384 | -97.59430 | 1297 ft | 7 kts | 90° |
| 2026-04-20 15:49 | 35.39384 | -97.59359 | 1296 ft | 9 kts | 90° |
| 2026-04-20 15:50 | 35.39384 | -97.59274 | 1295 ft | 11 kts | 84° |
| 2026-04-20 15:50 | 35.39439 | -97.59220 | 1295 ft | 11 kts | 14° |
| 2026-04-20 15:50 | 35.39476 | -97.59146 | 1294 ft | 12 kts | 88° |
| 2026-04-20 15:50 | 35.39501 | -97.59067 | 1292 ft | 11 kts | 25° |
| 2026-04-20 15:51 | 35.39582 | -97.59062 | 1292 ft | 12 kts | 359° |
| 2026-04-20 15:51 | 35.39673 | -97.59063 | 1293 ft | 14 kts | 0° |
| 2026-04-20 15:51 | 35.39775 | -97.59063 | 1294 ft | 15 kts | 360° |
| 2026-04-20 15:51 | 35.39893 | -97.59063 | 1292 ft | 18 kts | 360° |
| 2026-04-20 15:52 | 35.40023 | -97.59063 | 1291 ft | 18 kts | 360° |
| 2026-04-20 15:52 | 35.40148 | -97.59063 | 1292 ft | 18 kts | 360° |
| 2026-04-20 15:52 | 35.40270 | -97.59064 | 1291 ft | 17 kts | 360° |
| 2026-04-20 15:53 | 35.40392 | -97.59014 | 1290 ft | 7 kts | 75° |
| 2026-04-20 15:53 | 35.40392 | -97.58958 | 1291 ft | 7 kts | 94° |
| 2026-04-20 15:53 | 35.40374 | -97.58909 | 1293 ft | 6 kts | 134° |
| 2026-04-20 15:53 | 35.40332 | -97.58894 | 1294 ft | 6 kts | 181° |
| 2026-04-20 15:54 | 35.40328 | -97.58895 | 1294 ft | 0 kts | 180° |
| 2026-04-20 15:54 | 35.40319 | -97.58895 | 1294 ft | 9 kts | 180° |
| 2026-04-20 15:54 | 35.40005 | -97.58894 | 1292 ft | 80 kts | 180° |
| 2026-04-20 15:54 | 35.39230 | -97.58894 | 1294 ft | 140 kts | 180° |
| 2026-04-20 15:55 | 35.38140 | -97.58899 | 1639 ft | 161 kts | 180° |
| 2026-04-20 15:55 | 35.37052 | -97.58927 | 2584 ft | 152 kts | 183° |
| 2026-04-20 15:55 | 35.35940 | -97.58986 | 3006 ft | 174 kts | 185° |
| 2026-04-20 15:55 | 35.34675 | -97.59053 | 3217 ft | 195 kts | 184° |
| 2026-04-20 15:56 | 35.33251 | -97.59104 | 3475 ft | 213 kts | 183° |
| 2026-04-20 15:56 | 35.31733 | -97.59142 | 3883 ft | 222 kts | 183° |
| 2026-04-20 15:56 | 35.30163 | -97.59183 | 4409 ft | 228 kts | 183° |
| 2026-04-20 15:56 | 35.28566 | -97.59219 | 5044 ft | 230 kts | 183° |
| 2026-04-20 15:57 | 35.26966 | -97.59234 | 5704 ft | 228 kts | 181° |
| 2026-04-20 15:57 | 35.25361 | -97.59190 | 6213 ft | 235 kts | 178° |
| 2026-04-20 15:57 | 35.23728 | -97.59065 | 6757 ft | 241 kts | 175° |
| 2026-04-20 15:57 | 35.21973 | -97.58915 | 7026 ft | 260 kts | 178° |
| 2026-04-20 15:58 | 35.20174 | -97.58847 | 7667 ft | 265 kts | 180° |
| 2026-04-20 15:58 | 35.18320 | -97.58856 | 8319 ft | 268 kts | 182° |
| 2026-04-20 15:58 | 35.16435 | -97.58936 | 8911 ft | 276 kts | 183° |
| 2026-04-20 15:58 | 35.14515 | -97.59072 | 9587 ft | 278 kts | 187° |
| 2026-04-20 15:59 | 35.12590 | -97.59336 | 10251 ft | 282 kts | 189° |
| 2026-04-20 15:59 | 35.10568 | -97.59566 | 10465 ft | 303 kts | 184° |
| 2026-04-20 15:59 | 35.08390 | -97.59662 | 10650 ft | 323 kts | 184° |
| 2026-04-20 15:59 | 35.06106 | -97.59769 | 11051 ft | 333 kts | 183° |
| 2026-04-20 16:00 | 35.03763 | -97.59766 | 11594 ft | 339 kts | 181° |
| 2026-04-20 16:00 | 35.01425 | -97.59745 | 12236 ft | 342 kts | 182° |
| 2026-04-20 16:00 | 34.99044 | -97.59741 | 12979 ft | 342 kts | 179° |
| 2026-04-20 16:00 | 34.96646 | -97.59632 | 13576 ft | 348 kts | 180° |
| 2026-04-20 16:01 | 34.94199 | -97.59502 | 14133 ft | 356 kts | 172° |
| 2026-04-20 16:01 | 34.91900 | -97.58396 | 14743 ft | 361 kts | 144° |
| 2026-04-20 16:01 | 34.90183 | -97.56144 | 15258 ft | 371 kts | 121° |
| 2026-04-20 16:01 | 34.88968 | -97.53350 | 15917 ft | 373 kts | 117° |
| 2026-04-20 16:02 | 34.87781 | -97.50523 | 16541 ft | 377 kts | 117° |
| 2026-04-20 16:02 | 34.86581 | -97.47663 | 17133 ft | 382 kts | 117° |
| 2026-04-20 16:02 | 34.85377 | -97.44815 | 17788 ft | 385 kts | 117° |
| 2026-04-20 16:02 | 34.84131 | -97.41893 | 18320 ft | 391 kts | 117° |
| 2026-04-20 16:03 | 34.82866 | -97.38946 | 18899 ft | 394 kts | 117° |
| 2026-04-20 16:03 | 34.81587 | -97.35986 | 19482 ft | 397 kts | 118° |
| 2026-04-20 16:03 | 34.80296 | -97.33007 | 20028 ft | 400 kts | 118° |
| 2026-04-20 16:03 | 34.78993 | -97.30005 | 20572 ft | 403 kts | 118° |
| 2026-04-20 16:04 | 34.77678 | -97.26981 | 21087 ft | 406 kts | 118° |
| 2026-04-20 16:04 | 34.76349 | -97.23927 | 21554 ft | 411 kts | 118° |
| 2026-04-20 16:04 | 34.75025 | -97.20886 | 22025 ft | 414 kts | 118° |
| 2026-04-20 16:04 | 34.73676 | -97.17778 | 22542 ft | 417 kts | 118° |
| 2026-04-20 16:05 | 34.72317 | -97.14650 | 23035 ft | 420 kts | 118° |
| 2026-04-20 16:05 | 34.70942 | -97.11496 | 23514 ft | 423 kts | 118° |
| 2026-04-20 16:05 | 34.69556 | -97.08324 | 23977 ft | 427 kts | 119° |
| 2026-04-20 16:05 | 34.68157 | -97.05128 | 24365 ft | 430 kts | 119° |
| 2026-04-20 16:06 | 34.66748 | -97.01914 | 24761 ft | 433 kts | 119° |
| 2026-04-20 16:06 | 34.65329 | -96.98682 | 25151 ft | 435 kts | 119° |
| 2026-04-20 16:06 | 34.63919 | -96.95472 | 25534 ft | 438 kts | 119° |
| 2026-04-20 16:06 | 34.62479 | -96.92198 | 25910 ft | 441 kts | 119° |
| 2026-04-20 16:07 | 34.61029 | -96.88904 | 26283 ft | 444 kts | 119° |
| 2026-04-20 16:07 | 34.59570 | -96.85593 | 26652 ft | 446 kts | 120° |
| 2026-04-20 16:07 | 34.58100 | -96.82258 | 26992 ft | 450 kts | 119° |
| 2026-04-20 16:07 | 34.56614 | -96.78890 | 27275 ft | 455 kts | 119° |
| 2026-04-20 16:08 | 34.55114 | -96.75498 | 27634 ft | 457 kts | 120° |
| 2026-04-20 16:08 | 34.53710 | -96.72035 | 27985 ft | 460 kts | 112° |
| 2026-04-20 16:08 | 34.52659 | -96.68355 | 28349 ft | 463 kts | 108° |
| 2026-04-20 16:08 | 34.51719 | -96.64664 | 28673 ft | 466 kts | 108° |
| 2026-04-20 16:09 | 34.50783 | -96.60896 | 28978 ft | 469 kts | 108° |
| 2026-04-20 16:09 | 34.49830 | -96.57100 | 29274 ft | 472 kts | 108° |
| 2026-04-20 16:09 | 34.48855 | -96.53291 | 29584 ft | 475 kts | 108° |
| 2026-04-20 16:09 | 34.47858 | -96.49467 | 29898 ft | 477 kts | 109° |
| 2026-04-20 16:10 | 34.46847 | -96.45630 | 30197 ft | 480 kts | 109° |
| 2026-04-20 16:10 | 34.45820 | -96.41757 | 30345 ft | 485 kts | 109° |
| 2026-04-20 16:10 | 34.44782 | -96.37853 | 30553 ft | 489 kts | 109° |
| 2026-04-20 16:10 | 34.43738 | -96.33924 | 30826 ft | 490 kts | 109° |
| 2026-04-20 16:11 | 34.42706 | -96.30045 | 31109 ft | 491 kts | 109° |
| 2026-04-20 16:11 | 34.41656 | -96.26096 | 31353 ft | 493 kts | 109° |
| 2026-04-20 16:11 | 34.40601 | -96.22137 | 31568 ft | 496 kts | 109° |
| 2026-04-20 16:11 | 34.39540 | -96.18162 | 31807 ft | 497 kts | 109° |
| 2026-04-20 16:12 | 34.38355 | -96.14237 | 32108 ft | 495 kts | 117° |
| 2026-04-20 16:12 | 34.36746 | -96.10573 | 32452 ft | 491 kts | 126° |
| 2026-04-20 16:12 | 34.34730 | -96.07273 | 32759 ft | 487 kts | 133° |
| 2026-04-20 16:12 | 34.32563 | -96.04115 | 32923 ft | 489 kts | 134° |
| 2026-04-20 16:13 | 34.30396 | -96.00993 | 33098 ft | 492 kts | 134° |
| 2026-04-20 16:13 | 34.28259 | -95.97908 | 33398 ft | 491 kts | 134° |
| 2026-04-20 16:13 | 34.26079 | -95.94735 | 33780 ft | 489 kts | 134° |
| 2026-04-20 16:13 | 34.23916 | -95.91563 | 34114 ft | 488 kts | 134° |
| 2026-04-20 16:14 | 34.21761 | -95.88391 | 34365 ft | 489 kts | 134° |
| 2026-04-20 16:14 | 34.19604 | -95.85211 | 34564 ft | 490 kts | 134° |
| 2026-04-20 16:14 | 34.17445 | -95.82026 | 34761 ft | 491 kts | 134° |
| 2026-04-20 16:14 | 34.15282 | -95.78838 | 34966 ft | 491 kts | 134° |
| 2026-04-20 16:15 | 34.13846 | -95.76723 | 35101 ft | 492 kts | 134° |
| 2026-04-20 16:15 | 34.10971 | -95.72495 | 35358 ft | 493 kts | 134° |
| 2026-04-20 16:15 | 34.08795 | -95.69301 | 35556 ft | 493 kts | 134° |
| 2026-04-20 16:15 | 34.06609 | -95.66095 | 35649 ft | 496 kts | 134° |
| 2026-04-20 16:16 | 34.04409 | -95.62873 | 35768 ft | 499 kts | 134° |
| 2026-04-20 16:16 | 34.02206 | -95.59646 | 36032 ft | 498 kts | 134° |
| 2026-04-20 16:16 | 34.00750 | -95.57513 | 36191 ft | 497 kts | 134° |
| 2026-04-20 16:16 | 33.98560 | -95.54310 | 36383 ft | 498 kts | 134° |
| 2026-04-20 16:17 | 33.96353 | -95.51085 | 36534 ft | 499 kts | 134° |
| 2026-04-20 16:17 | 33.94141 | -95.47856 | 36662 ft | 501 kts | 134° |
| 2026-04-20 16:17 | 33.91199 | -95.43568 | 36872 ft | 502 kts | 134° |
| 2026-04-20 16:17 | 33.88977 | -95.40330 | 37074 ft | 501 kts | 134° |
| 2026-04-20 16:18 | 33.87475 | -95.38143 | 37193 ft | 502 kts | 134° |
| 2026-04-20 16:18 | 33.85281 | -95.34950 | 37338 ft | 503 kts | 134° |
| 2026-04-20 16:18 | 33.80835 | -95.28406 | 37358 ft | 508 kts | 130° |
| 2026-04-20 16:19 | 33.76830 | -95.21422 | 37359 ft | 507 kts | 127° |
| 2026-04-20 16:19 | 33.72364 | -95.13205 | 37362 ft | 504 kts | 127° |
| 2026-04-20 16:20 | 33.69137 | -95.07344 | 37361 ft | 501 kts | 128° |
| 2026-04-20 16:20 | 33.65282 | -95.00448 | 37361 ft | 500 kts | 128° |
| 2026-04-20 16:21 | 33.61429 | -94.93611 | 37361 ft | 500 kts | 128° |
| 2026-04-20 16:21 | 33.57525 | -94.86697 | 37351 ft | 501 kts | 128° |
| 2026-04-20 16:22 | 33.53613 | -94.79774 | 37363 ft | 503 kts | 128° |
| 2026-04-20 16:22 | 33.49680 | -94.72825 | 37363 ft | 505 kts | 128° |
| 2026-04-20 16:23 | 33.45754 | -94.65900 | 37364 ft | 507 kts | 128° |
| 2026-04-20 16:23 | 33.41782 | -94.58906 | 37363 ft | 509 kts | 128° |
| 2026-04-20 16:24 | 33.37793 | -94.51897 | 37357 ft | 510 kts | 128° |
| 2026-04-20 16:24 | 33.33790 | -94.44876 | 37369 ft | 511 kts | 128° |
| 2026-04-20 16:25 | 33.29773 | -94.37844 | 37383 ft | 512 kts | 128° |
| 2026-04-20 16:25 | 33.25783 | -94.30872 | 37393 ft | 512 kts | 128° |
| 2026-04-20 16:26 | 33.21763 | -94.23862 | 37416 ft | 511 kts | 128° |
| 2026-04-20 16:26 | 33.17748 | -94.16873 | 37433 ft | 510 kts | 128° |
| 2026-04-20 16:27 | 33.13732 | -94.09895 | 37422 ft | 510 kts | 128° |
| 2026-04-20 16:27 | 33.09743 | -94.02979 | 37410 ft | 509 kts | 128° |
| 2026-04-20 16:28 | 33.05783 | -93.96125 | 37395 ft | 507 kts | 128° |
| 2026-04-20 16:28 | 33.01778 | -93.89205 | 37370 ft | 506 kts | 128° |
| 2026-04-20 16:29 | 32.97786 | -93.82323 | 37371 ft | 506 kts | 129° |
| 2026-04-20 16:29 | 32.93813 | -93.75485 | 37372 ft | 505 kts | 129° |
| 2026-04-20 16:30 | 32.89812 | -93.68612 | 37379 ft | 505 kts | 129° |
| 2026-04-20 16:30 | 32.85805 | -93.61741 | 37379 ft | 506 kts | 129° |
| 2026-04-20 16:31 | 32.81792 | -93.54871 | 37378 ft | 505 kts | 129° |
| 2026-04-20 16:31 | 32.77777 | -93.48010 | 37393 ft | 505 kts | 129° |
| 2026-04-20 16:32 | 32.73787 | -93.41206 | 37403 ft | 506 kts | 129° |
| 2026-04-20 16:32 | 32.69762 | -93.34354 | 37403 ft | 506 kts | 129° |
| 2026-04-20 16:33 | 32.65739 | -93.27517 | 37403 ft | 505 kts | 129° |
| 2026-04-20 16:33 | 32.61713 | -93.20688 | 37406 ft | 505 kts | 129° |
| 2026-04-20 16:34 | 32.57682 | -93.13864 | 37368 ft | 505 kts | 129° |
| 2026-04-20 16:34 | 32.53685 | -93.07109 | 37387 ft | 504 kts | 129° |
| 2026-04-20 16:35 | 32.49659 | -93.00316 | 37386 ft | 504 kts | 129° |
| 2026-04-20 16:35 | 32.45670 | -92.93600 | 37387 ft | 503 kts | 129° |
| 2026-04-20 16:36 | 32.41637 | -92.86821 | 37390 ft | 504 kts | 129° |
| 2026-04-20 16:36 | 32.37626 | -92.80090 | 37396 ft | 504 kts | 129° |
| 2026-04-20 16:37 | 32.33588 | -92.73327 | 37386 ft | 504 kts | 130° |
| 2026-04-20 16:37 | 32.29540 | -92.66558 | 37390 ft | 504 kts | 130° |
| 2026-04-20 16:38 | 32.25491 | -92.59801 | 37383 ft | 504 kts | 130° |
| 2026-04-20 16:38 | 32.21458 | -92.53080 | 37387 ft | 505 kts | 130° |
| 2026-04-20 16:39 | 32.17391 | -92.46316 | 37392 ft | 506 kts | 130° |
| 2026-04-20 16:39 | 32.13315 | -92.39546 | 37387 ft | 506 kts | 130° |
| 2026-04-20 16:40 | 32.09230 | -92.32774 | 37384 ft | 507 kts | 130° |
| 2026-04-20 16:40 | 32.05649 | -92.25649 | 37395 ft | 514 kts | 115° |
| 2026-04-20 16:41 | 32.04478 | -92.21665 | 37364 ft | 516 kts | 104° |
| 2026-04-20 16:41 | 32.03719 | -92.17530 | 37406 ft | 516 kts | 102° |
| 2026-04-20 16:41 | 32.02335 | -92.09213 | 37389 ft | 517 kts | 102° |
| 2026-04-20 16:42 | 32.00929 | -92.00885 | 37377 ft | 518 kts | 102° |
| 2026-04-20 16:42 | 31.99487 | -91.92679 | 37375 ft | 519 kts | 103° |
| 2026-04-20 16:43 | 31.98004 | -91.84416 | 37384 ft | 519 kts | 103° |
| 2026-04-20 16:43 | 31.96502 | -91.76094 | 37380 ft | 520 kts | 103° |
| 2026-04-20 16:44 | 31.94995 | -91.67760 | 37385 ft | 520 kts | 103° |
| 2026-04-20 16:44 | 31.93485 | -91.59429 | 37382 ft | 521 kts | 103° |
| 2026-04-20 16:45 | 31.91970 | -91.51098 | 37386 ft | 521 kts | 103° |
| 2026-04-20 16:45 | 31.90458 | -91.42822 | 37378 ft | 521 kts | 103° |
| 2026-04-20 16:46 | 31.88928 | -91.34480 | 37390 ft | 521 kts | 103° |
| 2026-04-20 16:46 | 31.87394 | -91.26150 | 37389 ft | 521 kts | 103° |
| 2026-04-20 16:47 | 31.85855 | -91.17822 | 37391 ft | 521 kts | 103° |
| 2026-04-20 16:47 | 31.84320 | -91.09547 | 37388 ft | 522 kts | 103° |
| 2026-04-20 16:48 | 31.82765 | -91.01199 | 37383 ft | 522 kts | 103° |
| 2026-04-20 16:48 | 31.81223 | -90.92948 | 37379 ft | 523 kts | 103° |
| 2026-04-20 16:49 | 31.79655 | -90.84594 | 37380 ft | 524 kts | 103° |
| 2026-04-20 16:49 | 31.78081 | -90.76241 | 37395 ft | 523 kts | 104° |
| 2026-04-20 16:50 | 31.76512 | -90.67940 | 37384 ft | 524 kts | 104° |
| 2026-04-20 16:50 | 31.74923 | -90.59569 | 37377 ft | 526 kts | 104° |
| 2026-04-20 16:51 | 31.73324 | -90.51178 | 37381 ft | 527 kts | 104° |
| 2026-04-20 16:51 | 31.71717 | -90.42777 | 37385 ft | 528 kts | 104° |
| 2026-04-20 16:52 | 31.70101 | -90.34356 | 37390 ft | 529 kts | 104° |
| 2026-04-20 16:52 | 31.68488 | -90.25986 | 37387 ft | 530 kts | 104° |
| 2026-04-20 16:53 | 31.66853 | -90.17536 | 37386 ft | 531 kts | 104° |
| 2026-04-20 16:53 | 31.65212 | -90.09080 | 37384 ft | 531 kts | 104° |
| 2026-04-20 16:54 | 31.63565 | -90.00629 | 37381 ft | 532 kts | 104° |
| 2026-04-20 16:54 | 31.61941 | -89.92327 | 37384 ft | 532 kts | 104° |
| 2026-04-20 16:55 | 31.60281 | -89.83872 | 37387 ft | 532 kts | 104° |
| 2026-04-20 16:55 | 31.58614 | -89.75412 | 37387 ft | 532 kts | 104° |
| 2026-04-20 16:56 | 31.56944 | -89.66965 | 37392 ft | 532 kts | 104° |
| 2026-04-20 16:56 | 31.55278 | -89.58572 | 37403 ft | 532 kts | 105° |
| 2026-04-20 16:57 | 31.53596 | -89.50130 | 37407 ft | 532 kts | 105° |
| 2026-04-20 16:57 | 31.51908 | -89.41692 | 37386 ft | 532 kts | 105° |
| 2026-04-20 16:58 | 31.50217 | -89.33262 | 37404 ft | 531 kts | 105° |
| 2026-04-20 16:58 | 31.48520 | -89.24840 | 37414 ft | 531 kts | 105° |
| 2026-04-20 16:59 | 31.46829 | -89.16473 | 37408 ft | 532 kts | 105° |
| 2026-04-20 16:59 | 31.45119 | -89.08042 | 37402 ft | 532 kts | 105° |
| 2026-04-20 17:00 | 31.42559 | -88.95483 | 37389 ft | 533 kts | 105° |
| 2026-04-20 17:01 | 31.40829 | -88.87030 | 37380 ft | 534 kts | 105° |
| 2026-04-20 17:01 | 31.39101 | -88.78618 | 37379 ft | 536 kts | 105° |
| 2026-04-20 17:02 | 31.37352 | -88.70134 | 37376 ft | 537 kts | 105° |
| 2026-04-20 17:02 | 31.35593 | -88.61634 | 37369 ft | 538 kts | 105° |
| 2026-04-20 17:03 | 31.33827 | -88.53127 | 37367 ft | 538 kts | 105° |
| 2026-04-20 17:03 | 31.32054 | -88.44616 | 37380 ft | 539 kts | 105° |
| 2026-04-20 17:04 | 31.30284 | -88.36152 | 37375 ft | 540 kts | 105° |
| 2026-04-20 17:04 | 31.28495 | -88.27626 | 37360 ft | 540 kts | 105° |
| 2026-04-20 17:05 | 31.26701 | -88.19107 | 37358 ft | 540 kts | 105° |
| 2026-04-20 17:05 | 31.24901 | -88.10585 | 37358 ft | 540 kts | 105° |
| 2026-04-20 17:06 | 31.23106 | -88.02122 | 37359 ft | 540 kts | 105° |
| 2026-04-20 17:06 | 31.21316 | -87.93710 | 37359 ft | 539 kts | 105° |
| 2026-04-20 17:07 | 31.19500 | -87.85203 | 37354 ft | 540 kts | 105° |
| 2026-04-20 17:07 | 31.17677 | -87.76697 | 37359 ft | 541 kts | 105° |
| 2026-04-20 17:08 | 31.15844 | -87.68173 | 37372 ft | 542 kts | 105° |
| 2026-04-20 17:08 | 31.14011 | -87.59677 | 37360 ft | 544 kts | 105° |
| 2026-04-20 17:09 | 31.12159 | -87.51118 | 37353 ft | 545 kts | 105° |
| 2026-04-20 17:09 | 31.10296 | -87.42544 | 37352 ft | 545 kts | 105° |
| 2026-04-20 17:10 | 31.08427 | -87.33968 | 37351 ft | 546 kts | 105° |
| 2026-04-20 17:10 | 31.06561 | -87.25438 | 37349 ft | 547 kts | 105° |
| 2026-04-20 17:11 | 31.04677 | -87.16852 | 37336 ft | 547 kts | 105° |
| 2026-04-20 17:11 | 31.02786 | -87.08264 | 37322 ft | 547 kts | 105° |
| 2026-04-20 17:12 | 31.00908 | -86.99764 | 37316 ft | 546 kts | 105° |
| 2026-04-20 17:12 | 30.99013 | -86.91218 | 37344 ft | 546 kts | 105° |
| 2026-04-20 17:13 | 30.97120 | -86.82709 | 37332 ft | 546 kts | 105° |
| 2026-04-20 17:13 | 30.95210 | -86.74152 | 37350 ft | 546 kts | 105° |
| 2026-04-20 17:14 | 30.93295 | -86.65600 | 37357 ft | 545 kts | 105° |
| 2026-04-20 17:14 | 30.91377 | -86.57061 | 37345 ft | 545 kts | 106° |
| 2026-04-20 17:15 | 30.89466 | -86.48586 | 37348 ft | 545 kts | 105° |
| 2026-04-20 17:15 | 30.87538 | -86.40064 | 37354 ft | 544 kts | 105° |
| 2026-04-20 17:16 | 30.85606 | -86.31545 | 37358 ft | 544 kts | 106° |
| 2026-04-20 17:16 | 30.83668 | -86.23031 | 37350 ft | 545 kts | 106° |
| 2026-04-20 17:17 | 30.81726 | -86.14517 | 37351 ft | 545 kts | 105° |
| 2026-04-20 17:17 | 30.81064 | -86.10177 | 37326 ft | 544 kts | 92° |
| 2026-04-20 17:17 | 30.80877 | -86.05850 | 37367 ft | 543 kts | 89° |
| 2026-04-20 17:18 | 30.80816 | -85.97160 | 37355 ft | 543 kts | 88° |
| 2026-04-20 17:18 | 30.80734 | -85.88365 | 37355 ft | 544 kts | 89° |
| 2026-04-20 17:19 | 30.80527 | -85.79546 | 37351 ft | 545 kts | 90° |
| 2026-04-20 17:19 | 30.80264 | -85.70727 | 37358 ft | 546 kts | 90° |
| 2026-04-20 17:20 | 30.79997 | -85.61950 | 37358 ft | 547 kts | 90° |
| 2026-04-20 17:20 | 30.79732 | -85.53112 | 37360 ft | 547 kts | 90° |
| 2026-04-20 17:21 | 30.79464 | -85.44268 | 37350 ft | 547 kts | 90° |
| 2026-04-20 17:21 | 30.79190 | -85.35428 | 37348 ft | 547 kts | 90° |
| 2026-04-20 17:22 | 30.78909 | -85.26580 | 37336 ft | 547 kts | 90° |
| 2026-04-20 17:22 | 30.78623 | -85.17793 | 37339 ft | 547 kts | 90° |
| 2026-04-20 17:23 | 30.78331 | -85.08956 | 37340 ft | 547 kts | 90° |
| 2026-04-20 17:23 | 30.78033 | -85.00127 | 37343 ft | 546 kts | 90° |
| 2026-04-20 17:24 | 30.77730 | -84.91403 | 37328 ft | 546 kts | 91° |
| 2026-04-20 17:24 | 30.77092 | -84.87053 | 37298 ft | 546 kts | 111° |
| 2026-04-20 17:24 | 30.75572 | -84.83126 | 37340 ft | 538 kts | 126° |
| 2026-04-20 17:24 | 30.73352 | -84.79684 | 37321 ft | 525 kts | 142° |
| 2026-04-20 17:25 | 30.70684 | -84.76863 | 37340 ft | 518 kts | 148° |
| 2026-04-20 17:25 | 30.65147 | -84.71510 | 37328 ft | 518 kts | 149° |
| 2026-04-20 17:26 | 30.59605 | -84.66125 | 37324 ft | 521 kts | 148° |
| 2026-04-20 17:26 | 30.54088 | -84.60644 | 37314 ft | 523 kts | 147° |
| 2026-04-20 17:27 | 30.48605 | -84.55162 | 37313 ft | 525 kts | 147° |
| 2026-04-20 17:27 | 30.43065 | -84.49640 | 37310 ft | 526 kts | 147° |
| 2026-04-20 17:28 | 30.37507 | -84.44117 | 37305 ft | 527 kts | 147° |
| 2026-04-20 17:28 | 30.31943 | -84.38596 | 37304 ft | 527 kts | 147° |
| 2026-04-20 17:29 | 30.26415 | -84.33114 | 37276 ft | 527 kts | 147° |
| 2026-04-20 17:29 | 30.20865 | -84.27613 | 37296 ft | 525 kts | 147° |
| 2026-04-20 17:29 | 30.18081 | -84.24859 | 36897 ft | 530 kts | 147° |
| 2026-04-20 17:30 | 30.15284 | -84.22094 | 36498 ft | 526 kts | 147° |
| 2026-04-20 17:30 | 30.12519 | -84.19356 | 36120 ft | 521 kts | 148° |
| 2026-04-20 17:30 | 30.09773 | -84.16640 | 35722 ft | 518 kts | 148° |
| 2026-04-20 17:30 | 30.07047 | -84.13946 | 35330 ft | 514 kts | 148° |
| 2026-04-20 17:31 | 30.04337 | -84.11273 | 34940 ft | 511 kts | 148° |
| 2026-04-20 17:31 | 30.01644 | -84.08621 | 34543 ft | 508 kts | 149° |
| 2026-04-20 17:31 | 29.99004 | -84.06023 | 34112 ft | 505 kts | 149° |
| 2026-04-20 17:31 | 29.96342 | -84.03406 | 33666 ft | 501 kts | 148° |
| 2026-04-20 17:32 | 29.93701 | -84.00809 | 33291 ft | 497 kts | 148° |
| 2026-04-20 17:32 | 29.91139 | -83.98292 | 32906 ft | 493 kts | 148° |
| 2026-04-20 17:32 | 29.88541 | -83.95742 | 32520 ft | 489 kts | 148° |
| 2026-04-20 17:32 | 29.85963 | -83.93213 | 32148 ft | 485 kts | 147° |
| 2026-04-20 17:33 | 29.83405 | -83.90707 | 31786 ft | 481 kts | 147° |
| 2026-04-20 17:33 | 29.80790 | -83.88381 | 31434 ft | 468 kts | 156° |
| 2026-04-20 17:33 | 29.78031 | -83.86497 | 31217 ft | 456 kts | 160° |
| 2026-04-20 17:33 | 29.75305 | -83.84792 | 30968 ft | 448 kts | 161° |
| 2026-04-20 17:34 | 29.72568 | -83.83124 | 30719 ft | 443 kts | 160° |
| 2026-04-20 17:34 | 29.69864 | -83.81466 | 30401 ft | 439 kts | 160° |
| 2026-04-20 17:34 | 29.67183 | -83.79796 | 29975 ft | 437 kts | 159° |
| 2026-04-20 17:34 | 29.64536 | -83.78122 | 29649 ft | 432 kts | 159° |
| 2026-04-20 17:35 | 29.61916 | -83.76448 | 29259 ft | 429 kts | 158° |
| 2026-04-20 17:35 | 29.59322 | -83.74783 | 28882 ft | 426 kts | 158° |
| 2026-04-20 17:35 | 29.56749 | -83.73128 | 28509 ft | 422 kts | 158° |
| 2026-04-20 17:35 | 29.54226 | -83.71506 | 28146 ft | 419 kts | 158° |
| 2026-04-20 17:36 | 29.51688 | -83.69875 | 27785 ft | 416 kts | 158° |
| 2026-04-20 17:36 | 29.49170 | -83.68259 | 27426 ft | 414 kts | 158° |
| 2026-04-20 17:36 | 29.46667 | -83.66653 | 27056 ft | 411 kts | 158° |
| 2026-04-20 17:36 | 29.44178 | -83.65059 | 26713 ft | 409 kts | 158° |
| 2026-04-20 17:37 | 29.41700 | -83.63472 | 26360 ft | 406 kts | 158° |
| 2026-04-20 17:37 | 29.39241 | -83.61898 | 26006 ft | 404 kts | 158° |
| 2026-04-20 17:37 | 29.36789 | -83.60330 | 25629 ft | 402 kts | 158° |
| 2026-04-20 17:37 | 29.34352 | -83.58772 | 25293 ft | 400 kts | 157° |
| 2026-04-20 17:38 | 29.31956 | -83.57241 | 24948 ft | 399 kts | 157° |
| 2026-04-20 17:38 | 29.29539 | -83.55697 | 24604 ft | 397 kts | 157° |
| 2026-04-20 17:38 | 29.27131 | -83.54160 | 24245 ft | 396 kts | 157° |
| 2026-04-20 17:38 | 29.24729 | -83.52626 | 23898 ft | 395 kts | 157° |
| 2026-04-20 17:39 | 29.22327 | -83.51095 | 23489 ft | 394 kts | 157° |
| 2026-04-20 17:39 | 29.19947 | -83.49578 | 23213 ft | 390 kts | 157° |
| 2026-04-20 17:39 | 29.17573 | -83.48069 | 22954 ft | 395 kts | 157° |
| 2026-04-20 17:39 | 29.15101 | -83.46507 | 22739 ft | 417 kts | 156° |
| 2026-04-20 17:40 | 29.12496 | -83.44860 | 22506 ft | 438 kts | 156° |
| 2026-04-20 17:40 | 29.09771 | -83.43129 | 22267 ft | 457 kts | 155° |
| 2026-04-20 17:40 | 29.06986 | -83.41356 | 21936 ft | 469 kts | 155° |
| 2026-04-20 17:40 | 29.04143 | -83.39544 | 21500 ft | 467 kts | 155° |
| 2026-04-20 17:41 | 29.01313 | -83.37744 | 21009 ft | 464 kts | 155° |
| 2026-04-20 17:41 | 28.98511 | -83.35964 | 20517 ft | 460 kts | 155° |
| 2026-04-20 17:41 | 28.95717 | -83.34192 | 19960 ft | 458 kts | 155° |
| 2026-04-20 17:41 | 28.92941 | -83.32433 | 19417 ft | 454 kts | 155° |
| 2026-04-20 17:42 | 28.90192 | -83.30692 | 18883 ft | 449 kts | 155° |
| 2026-04-20 17:42 | 28.87483 | -83.28977 | 18335 ft | 443 kts | 155° |
| 2026-04-20 17:42 | 28.84797 | -83.27277 | 17713 ft | 439 kts | 154° |
| 2026-04-20 17:42 | 28.82177 | -83.25621 | 17102 ft | 435 kts | 154° |
| 2026-04-20 17:43 | 28.79543 | -83.23957 | 16506 ft | 431 kts | 154° |
| 2026-04-20 17:43 | 28.76933 | -83.22310 | 15906 ft | 427 kts | 153° |
| 2026-04-20 17:43 | 28.74345 | -83.20677 | 15321 ft | 423 kts | 153° |
| 2026-04-20 17:43 | 28.71784 | -83.19062 | 14757 ft | 420 kts | 153° |
| 2026-04-20 17:44 | 28.69233 | -83.17453 | 14195 ft | 417 kts | 152° |
| 2026-04-20 17:44 | 28.66698 | -83.15856 | 13595 ft | 415 kts | 152° |
| 2026-04-20 17:44 | 28.64188 | -83.14274 | 12987 ft | 411 kts | 152° |
| 2026-04-20 17:44 | 28.61722 | -83.12722 | 12389 ft | 408 kts | 152° |
| 2026-04-20 17:45 | 28.59272 | -83.11180 | 11830 ft | 398 kts | 152° |
| 2026-04-20 17:45 | 28.56881 | -83.09677 | 11341 ft | 387 kts | 152° |
| 2026-04-20 17:45 | 28.54549 | -83.08212 | 10852 ft | 378 kts | 151° |
| 2026-04-20 17:45 | 28.52272 | -83.06784 | 10384 ft | 370 kts | 151° |
| 2026-04-20 17:46 | 28.50040 | -83.05382 | 9895 ft | 363 kts | 150° |
| 2026-04-20 17:46 | 28.47852 | -83.04008 | 9374 ft | 356 kts | 151° |
| 2026-04-20 17:46 | 28.45703 | -83.02661 | 8866 ft | 350 kts | 150° |
| 2026-04-20 17:46 | 28.43590 | -83.01337 | 8370 ft | 345 kts | 150° |
| 2026-04-20 17:47 | 28.41515 | -83.00038 | 8145 ft | 332 kts | 149° |
| 2026-04-20 17:47 | 28.39589 | -82.98832 | 7799 ft | 325 kts | 149° |
| 2026-04-20 17:47 | 28.37654 | -82.97621 | 7747 ft | 309 kts | 149° |
| 2026-04-20 17:47 | 28.35811 | -82.96467 | 7724 ft | 297 kts | 149° |
| 2026-04-20 17:48 | 28.34009 | -82.95339 | 7670 ft | 295 kts | 149° |
| 2026-04-20 17:48 | 28.32209 | -82.94213 | 7543 ft | 296 kts | 148° |
| 2026-04-20 17:48 | 28.30411 | -82.93087 | 7432 ft | 295 kts | 148° |
| 2026-04-20 17:48 | 28.28613 | -82.91965 | 7309 ft | 294 kts | 148° |
| 2026-04-20 17:49 | 28.26864 | -82.90773 | 7179 ft | 292 kts | 138° |
| 2026-04-20 17:49 | 28.25381 | -82.89272 | 7078 ft | 288 kts | 133° |
| 2026-04-20 17:49 | 28.23968 | -82.87662 | 6953 ft | 288 kts | 132° |
| 2026-04-20 17:49 | 28.22568 | -82.86046 | 6839 ft | 287 kts | 132° |
| 2026-04-20 17:50 | 28.21163 | -82.84440 | 6722 ft | 287 kts | 132° |
| 2026-04-20 17:50 | 28.19750 | -82.82845 | 6603 ft | 287 kts | 131° |
| 2026-04-20 17:50 | 28.18332 | -82.81258 | 6480 ft | 287 kts | 133° |
| 2026-04-20 17:50 | 28.16914 | -82.79681 | 6350 ft | 284 kts | 133° |
| 2026-04-20 17:51 | 28.15513 | -82.78130 | 6222 ft | 280 kts | 132° |
| 2026-04-20 17:51 | 28.14122 | -82.76590 | 6093 ft | 279 kts | 133° |
| 2026-04-20 17:51 | 28.12733 | -82.75057 | 5975 ft | 279 kts | 134° |
| 2026-04-20 17:51 | 28.11361 | -82.73544 | 5858 ft | 279 kts | 132° |
| 2026-04-20 17:52 | 28.09971 | -82.72013 | 5729 ft | 279 kts | 132° |
| 2026-04-20 17:52 | 28.08581 | -82.70483 | 5607 ft | 278 kts | 133° |
| 2026-04-20 17:52 | 28.07200 | -82.68944 | 5505 ft | 278 kts | 132° |
| 2026-04-20 17:52 | 28.05836 | -82.67380 | 5380 ft | 280 kts | 132° |
| 2026-04-20 17:53 | 28.04483 | -82.65821 | 5255 ft | 275 kts | 132° |
| 2026-04-20 17:53 | 28.03158 | -82.64296 | 5118 ft | 269 kts | 131° |
| 2026-04-20 17:53 | 28.01865 | -82.62816 | 5040 ft | 258 kts | 132° |
| 2026-04-20 17:53 | 28.00399 | -82.61745 | 4986 ft | 248 kts | 162° |
| 2026-04-20 17:54 | 27.98752 | -82.61497 | 4995 ft | 236 kts | 178° |
| 2026-04-20 17:54 | 27.97126 | -82.61560 | 5003 ft | 237 kts | 181° |
| 2026-04-20 17:54 | 27.95483 | -82.61653 | 5002 ft | 238 kts | 180° |
| 2026-04-20 17:54 | 27.93823 | -82.61736 | 5005 ft | 240 kts | 180° |
| 2026-04-20 17:55 | 27.92153 | -82.61811 | 5006 ft | 240 kts | 181° |
| 2026-04-20 17:55 | 27.90492 | -82.61882 | 4972 ft | 239 kts | 180° |
| 2026-04-20 17:55 | 27.88796 | -82.61953 | 4635 ft | 247 kts | 180° |
| 2026-04-20 17:55 | 27.87054 | -82.62023 | 4300 ft | 248 kts | 179° |
| 2026-04-20 17:56 | 27.85354 | -82.62090 | 3992 ft | 244 kts | 180° |
| 2026-04-20 17:56 | 27.83669 | -82.62158 | 3658 ft | 240 kts | 179° |
| 2026-04-20 17:56 | 27.82031 | -82.62223 | 3321 ft | 236 kts | 178° |
| 2026-04-20 17:56 | 27.80403 | -82.62287 | 3004 ft | 233 kts | 179° |
| 2026-04-20 17:57 | 27.78788 | -82.62350 | 2691 ft | 231 kts | 178° |
| 2026-04-20 17:57 | 27.77163 | -82.62412 | 2635 ft | 239 kts | 179° |
| 2026-04-20 17:57 | 27.75508 | -82.62471 | 2591 ft | 235 kts | 177° |
| 2026-04-20 17:57 | 27.74002 | -82.62022 | 2580 ft | 218 kts | 141° |
| 2026-04-20 17:58 | 27.73028 | -82.60770 | 2583 ft | 213 kts | 112° |
| 2026-04-20 17:58 | 27.72690 | -82.59175 | 2586 ft | 209 kts | 85° |
| 2026-04-20 17:58 | 27.73051 | -82.57631 | 2574 ft | 204 kts | 58° |
| 2026-04-20 17:58 | 27.73977 | -82.56425 | 2579 ft | 206 kts | 36° |
| 2026-04-20 17:59 | 27.75237 | -82.55764 | 2581 ft | 200 kts | 19° |
| 2026-04-20 17:59 | 27.76528 | -82.55313 | 2577 ft | 186 kts | 19° |
| 2026-04-20 17:59 | 27.77732 | -82.54928 | 2550 ft | 179 kts | 12° |
| 2026-04-20 17:59 | 27.78979 | -82.54821 | 2583 ft | 182 kts | 5° |
| 2026-04-20 18:00 | 27.80236 | -82.54780 | 2575 ft | 181 kts | 5° |
| 2026-04-20 18:00 | 27.81487 | -82.54741 | 2581 ft | 179 kts | 5° |
| 2026-04-20 18:00 | 27.82723 | -82.54700 | 2569 ft | 177 kts | 5° |
| 2026-04-20 18:00 | 27.83975 | -82.54657 | 2388 ft | 181 kts | 5° |
| 2026-04-20 18:01 | 27.85213 | -82.54616 | 2166 ft | 179 kts | 6° |
| 2026-04-20 18:01 | 27.86449 | -82.54573 | 1946 ft | 178 kts | 6° |
| 2026-04-20 18:01 | 27.87681 | -82.54532 | 1695 ft | 176 kts | 6° |
| 2026-04-20 18:01 | 27.88895 | -82.54490 | 1458 ft | 172 kts | 5° |
| 2026-04-20 18:02 | 27.90049 | -82.54452 | 1251 ft | 161 kts | 6° |
| 2026-04-20 18:02 | 27.91141 | -82.54413 | 1054 ft | 150 kts | 6° |
| 2026-04-20 18:02 | 27.92134 | -82.54380 | 845 ft | 138 kts | 7° |
| 2026-04-20 18:02 | 27.93070 | -82.54345 | 709 ft | 134 kts | 9° |
| 2026-04-20 18:03 | 27.94007 | -82.54312 | 525 ft | 136 kts | 3° |
| 2026-04-20 18:03 | 27.95014 | -82.54284 | 368 ft | 147 kts | 3° |
| 2026-04-20 18:03 | 27.96014 | -82.54247 | 154 ft | 143 kts | 4° |
| 2026-04-20 18:03 | 27.96963 | -82.54217 | 53 ft | 127 kts | 4° |
| 2026-04-20 18:04 | 27.97727 | -82.54187 | 43 ft | 92 kts | 1° |
| 2026-04-20 18:04 | 27.98127 | -82.54172 | 47 ft | 33 kts | 7° |
| 2026-04-20 18:04 | 27.98251 | -82.54131 | 49 ft | 15 kts | 34° |
| 2026-04-20 18:04 | 27.98248 | -82.54050 | 45 ft | 9 kts | 152° |
| 2026-04-20 18:05 | 27.98129 | -82.54051 | 46 ft | 8 kts | 182° |
| 2026-04-20 18:05 | 27.98072 | -82.54053 | 46 ft | 8 kts | 179° |
| 2026-04-20 18:05 | 27.98034 | -82.54018 | 46 ft | 8 kts | 98° |
| 2026-04-20 18:06 | 27.98006 | -82.53973 | 46 ft | 8 kts | 167° |
| 2026-04-20 18:06 | 27.97952 | -82.53974 | 45 ft | 8 kts | 181° |
| 2026-04-20 18:06 | 27.97898 | -82.53976 | 42 ft | 8 kts | 181° |
| 2026-04-20 18:06 | 27.97834 | -82.53977 | 44 ft | 10 kts | 180° |
| 2026-04-20 18:07 | 27.97760 | -82.53978 | 45 ft | 12 kts | 181° |
| 2026-04-20 18:07 | 27.97672 | -82.53981 | 45 ft | 13 kts | 182° |
| 2026-04-20 18:07 | 27.97584 | -82.53986 | 46 ft | 12 kts | 183° |
| 2026-04-20 18:07 | 27.97525 | -82.53980 | 45 ft | 2 kts | 155° |
| 2026-04-20 18:08 | 27.97518 | -82.53967 | 45 ft | 3 kts | 104° |
| 2026-04-20 18:08 | 27.97506 | -82.53914 | 42 ft | 10 kts | 104° |
| 2026-04-20 18:08 | 27.97469 | -82.53843 | 45 ft | 11 kts | 124° |
| 2026-04-20 18:08 | 27.97429 | -82.53776 | 48 ft | 10 kts | 124° |
| 2026-04-20 18:09 | 27.97389 | -82.53709 | 52 ft | 10 kts | 123° |
| 2026-04-20 18:09 | 27.97355 | -82.53639 | 51 ft | 11 kts | 114° |
| 2026-04-20 18:09 | 27.97328 | -82.53547 | 49 ft | 15 kts | 103° |
| 2026-04-20 18:09 | 27.97316 | -82.53411 | 44 ft | 19 kts | 92° |
| 2026-04-20 18:10 | 27.97311 | -82.53264 | 42 ft | 18 kts | 92° |
| 2026-04-20 18:10 | 27.97308 | -82.53128 | 40 ft | 13 kts | 91° |
| 2026-04-20 18:10 | 27.97331 | -82.53077 | 40 ft | 7 kts | 19° |
| 2026-04-20 18:10 | 27.97384 | -82.53071 | 42 ft | 8 kts | 0° |
| 2026-04-20 18:11 | 27.97445 | -82.53072 | 41 ft | 9 kts | 2° |
| 2026-04-20 18:11 | 27.97512 | -82.53070 | 42 ft | 10 kts | 2° |
| 2026-04-20 18:11 | 27.97584 | -82.53068 | 40 ft | 11 kts | 1° |
| 2026-04-20 18:11 | 27.97663 | -82.53065 | 42 ft | 11 kts | 1° |
| 2026-04-20 18:12 | 27.97740 | -82.53063 | 42 ft | 11 kts | 1° |
| 2026-04-20 18:12 | 27.97812 | -82.53060 | 42 ft | 10 kts | 1° |
| 2026-04-20 18:12 | 27.97881 | -82.53058 | 42 ft | 10 kts | 1° |
| 2026-04-20 18:12 | 27.97946 | -82.53056 | 42 ft | 9 kts | 2° |
| 2026-04-20 18:13 | 27.98011 | -82.53053 | 42 ft | 10 kts | 2° |
| 2026-04-20 18:13 | 27.98080 | -82.53051 | 39 ft | 10 kts | 2° |
| 2026-04-20 18:13 | 27.98147 | -82.53049 | 42 ft | 10 kts | 2° |
| 2026-04-20 18:13 | 27.98206 | -82.53047 | 42 ft | 6 kts | 360° |
| 2026-04-20 18:14 | 27.98217 | -82.53060 | 42 ft | 3 kts | 292° |
| 2026-04-20 18:14 | 27.98219 | -82.53095 | 42 ft | 5 kts | 272° |
| 2026-04-20 18:14 | 27.98219 | -82.53118 | 42 ft | 1 kts | 272° |
| 2026-04-20 18:14 | 27.98220 | -82.53123 | 42 ft | 0 kts | 272° |